createdAt,value
2022-08-27T00:02:09.630Z,4.00
2022-08-27T00:04:38.885Z,3.90
2022-08-27T00:07:08.995Z,3.90
2022-08-27T00:09:38.247Z,3.90
2022-08-27T00:12:07.029Z,3.60
2022-08-27T00:14:36.696Z,3.50
2022-08-27T00:17:06.726Z,3.70
2022-08-27T00:19:36.731Z,3.80
2022-08-27T00:22:06.002Z,3.90
2022-08-27T00:24:34.736Z,3.60
2022-08-27T00:27:06.466Z,3.40
2022-08-27T00:29:36.487Z,3.60
2022-08-27T00:32:04.840Z,3.50
2022-08-27T00:34:32.967Z,3.50
2022-08-27T00:37:00.932Z,3.60
2022-08-27T00:39:29.062Z,3.90
2022-08-27T00:41:57.144Z,3.40
2022-08-27T00:44:25.223Z,3.50
2022-08-27T00:46:57.062Z,3.90
2022-08-27T00:49:32.128Z,3.70
2022-08-27T00:52:11.993Z,3.50
2022-08-27T00:54:41.346Z,3.40
2022-08-27T00:57:09.562Z,4.00
2022-08-27T00:59:38.241Z,3.50
2022-08-27T01:02:21.475Z,3.60
2022-08-27T01:05:03.220Z,3.70
2022-08-27T01:07:36.474Z,3.90
2022-08-27T01:10:07.361Z,3.80
2022-08-27T01:12:36.321Z,3.50
2022-08-27T01:15:10.980Z,3.00
2022-08-27T01:17:43.671Z,3.40
2022-08-27T01:20:20.605Z,4.10
2022-08-27T01:23:01.955Z,3.40
2022-08-27T01:25:30.972Z,3.70
2022-08-27T01:28:01.180Z,3.50
2022-08-27T01:30:29.359Z,3.90
2022-08-27T01:32:57.871Z,3.40
2022-08-27T01:35:26.242Z,3.80
2022-08-27T01:37:57.231Z,3.30
2022-08-27T01:40:25.748Z,3.60
2022-08-27T01:42:56.791Z,4.10
2022-08-27T01:45:29.024Z,4.10
2022-08-27T01:47:59.015Z,3.60
2022-08-27T01:50:32.008Z,4.10
2022-08-27T01:53:14.067Z,4.00
2022-08-27T01:55:47.678Z,4.10
2022-08-27T01:58:18.683Z,4.10
2022-08-27T02:00:54.713Z,3.90
2022-08-27T02:03:25.274Z,3.90
2022-08-27T02:05:54.662Z,3.50
2022-08-27T02:08:22.922Z,3.80
2022-08-27T02:10:51.762Z,3.70
2022-08-27T02:13:19.877Z,3.70
2022-08-27T02:15:47.996Z,4.10
2022-08-27T02:18:16.615Z,3.70
2022-08-27T02:20:46.486Z,4.50
2022-08-27T02:23:15.785Z,3.40
2022-08-27T02:25:45.435Z,3.30
2022-08-27T02:28:14.161Z,3.60
2022-08-27T02:30:42.204Z,3.80
2022-08-27T02:33:10.506Z,3.60
2022-08-27T02:35:40.699Z,3.80
2022-08-27T02:38:08.799Z,3.90
2022-08-27T02:40:37.684Z,4.00
2022-08-27T02:43:06.890Z,3.60
2022-08-27T02:45:37.599Z,3.80
2022-08-27T02:48:07.918Z,3.70
2022-08-27T02:50:36.941Z,3.70
2022-08-27T02:53:06.372Z,4.10
2022-08-27T02:55:34.428Z,3.80
2022-08-27T02:58:05.225Z,3.50
2022-08-27T03:00:33.672Z,4.40
2022-08-27T03:03:02.929Z,3.70
2022-08-27T03:05:31.038Z,3.60
2022-08-27T03:07:59.963Z,3.20
2022-08-27T03:10:28.024Z,3.60
2022-08-27T03:12:57.366Z,3.40
2022-08-27T03:15:25.494Z,3.90
2022-08-27T03:18:12.173Z,4.10
2022-08-27T03:20:44.623Z,4.70
2022-08-27T03:23:14.844Z,3.80
2022-08-27T03:25:51.618Z,4.00
2022-08-27T03:28:26.154Z,3.70
2022-08-27T03:31:01.424Z,4.10
2022-08-27T03:33:35.917Z,3.60
2022-08-27T03:36:06.383Z,3.90
2022-08-27T03:38:35.927Z,4.70
2022-08-27T03:41:05.989Z,4.00
2022-08-27T03:43:34.101Z,3.70
2022-08-27T03:46:02.597Z,3.80
2022-08-27T03:48:32.292Z,3.60
2022-08-27T03:51:08.731Z,3.50
2022-08-27T03:53:38.745Z,4.00
2022-08-27T03:56:08.339Z,4.20
2022-08-27T03:58:37.764Z,3.80
2022-08-27T04:01:08.134Z,4.50
2022-08-27T04:03:36.462Z,4.30
2022-08-27T04:06:04.773Z,4.10
2022-08-27T04:08:33.238Z,4.00
2022-08-27T04:11:06.139Z,4.00
2022-08-27T04:13:34.187Z,4.20
2022-08-27T04:16:02.219Z,4.10
2022-08-27T04:18:30.425Z,4.00
2022-08-27T04:20:58.642Z,4.20
2022-08-27T04:23:26.761Z,3.80
2022-08-27T04:25:54.722Z,3.90
2022-08-27T04:28:24.982Z,3.60
2022-08-27T04:30:52.964Z,4.40
2022-08-27T04:33:21.071Z,3.80
2022-08-27T04:36:07.857Z,4.20
2022-08-27T04:38:36.768Z,4.50
2022-08-27T04:41:27.646Z,3.90
2022-08-27T04:43:57.990Z,3.90
2022-08-27T04:46:32.239Z,4.40
2022-08-27T04:49:03.743Z,5.00
2022-08-27T04:51:40.155Z,3.90
2022-08-27T04:54:09.527Z,4.40
2022-08-27T04:56:39.172Z,3.70
2022-08-27T04:59:10.115Z,4.10
2022-08-27T05:01:40.508Z,3.80
2022-08-27T05:04:11.154Z,4.30
2022-08-27T05:06:39.111Z,4.20
2022-08-27T05:09:07.087Z,3.80
2022-08-27T05:11:35.465Z,4.30
2022-08-27T05:14:08.890Z,4.10
2022-08-27T05:16:39.226Z,3.90
2022-08-27T05:19:10.445Z,4.00
2022-08-27T05:21:40.270Z,3.70
2022-08-27T05:24:08.455Z,3.70
2022-08-27T05:26:37.566Z,4.00
2022-08-27T05:29:06.764Z,3.80
2022-08-27T05:31:35.627Z,4.00
2022-08-27T05:34:10.583Z,3.80
2022-08-27T05:36:48.566Z,4.10
2022-08-27T05:39:17.621Z,4.00
2022-08-27T05:41:45.782Z,4.20
2022-08-27T05:47:03.850Z,3.80
2022-08-27T05:49:32.013Z,4.20
2022-08-27T05:52:00.079Z,3.70
2022-08-27T05:54:28.155Z,4.30
2022-08-27T05:56:56.117Z,4.00
2022-08-27T05:59:42.558Z,3.90
2022-08-27T06:02:11.161Z,3.70
2022-08-27T06:04:39.395Z,4.30
2022-08-27T06:07:10.713Z,3.60
2022-08-27T06:09:40.084Z,4.00
2022-08-27T06:12:08.500Z,3.60
2022-08-27T06:14:38.308Z,3.60
2022-08-27T06:17:06.631Z,4.00
2022-08-27T06:19:36.708Z,3.50
2022-08-27T06:22:10.016Z,3.70
2022-08-27T06:24:41.999Z,3.50
2022-08-27T06:27:16.352Z,3.40
2022-08-27T06:29:45.171Z,4.20
2022-08-27T06:32:14.953Z,3.90
2022-08-27T06:34:43.263Z,3.20
2022-08-27T06:37:11.512Z,3.40
2022-08-27T06:39:42.124Z,3.90
2022-08-27T06:42:12.641Z,3.60
2022-08-27T06:44:42.118Z,3.80
2022-08-27T06:47:11.002Z,3.70
2022-08-27T06:49:41.234Z,3.30
2022-08-27T06:52:09.463Z,3.30
2022-08-27T06:54:40.338Z,3.70
2022-08-27T06:57:09.039Z,3.70
2022-08-27T06:59:38.699Z,3.90
2022-08-27T07:02:08.942Z,3.70
2022-08-27T07:04:37.016Z,3.80
2022-08-27T07:07:05.173Z,3.70
2022-08-27T07:09:34.228Z,3.20
2022-08-27T07:12:03.558Z,3.70
2022-08-27T07:14:37.551Z,3.60
2022-08-27T07:17:09.785Z,3.90
2022-08-27T07:19:41.115Z,3.80
2022-08-27T07:22:12.482Z,3.40
2022-08-27T07:24:41.279Z,3.60
2022-08-27T07:27:09.571Z,3.10
2022-08-27T07:29:38.176Z,3.70
2022-08-27T07:32:07.047Z,3.50
2022-08-27T07:34:35.405Z,3.30
2022-08-27T07:37:05.020Z,3.60
2022-08-27T07:39:34.371Z,3.20
2022-08-27T07:42:20.978Z,3.40
2022-08-27T07:44:50.137Z,3.20
2022-08-27T07:47:18.805Z,3.40
2022-08-27T07:49:46.928Z,3.20
2022-08-27T07:52:17.578Z,3.50
2022-08-27T07:54:46.384Z,3.10
2022-08-27T07:57:14.441Z,3.50
2022-08-27T07:59:43.674Z,2.90
2022-08-27T08:02:12.884Z,3.60
2022-08-27T08:04:41.224Z,3.50
2022-08-27T08:07:09.712Z,4.10
2022-08-27T08:09:39.902Z,3.20
2022-08-27T08:12:08.415Z,3.90
2022-08-27T08:14:37.659Z,3.60
2022-08-27T08:17:06.402Z,3.60
2022-08-27T08:19:40.443Z,3.40
2022-08-27T08:22:10.973Z,3.40
2022-08-27T08:24:39.888Z,3.40
2022-08-27T08:27:08.262Z,4.10
2022-08-27T08:29:36.917Z,4.20
2022-08-27T08:32:07.080Z,3.40
2022-08-27T08:34:36.186Z,3.90
2022-08-27T08:37:06.909Z,4.00
2022-08-27T08:39:37.152Z,3.90
2022-08-27T08:42:08.370Z,3.10
2022-08-27T08:44:39.343Z,3.60
2022-08-27T08:47:17.327Z,3.30
2022-08-27T08:50:08.424Z,3.50
2022-08-27T08:52:42.935Z,3.60
2022-08-27T08:55:29.273Z,3.50
2022-08-27T08:58:16.959Z,3.70
2022-08-27T09:00:49.019Z,3.60
2022-08-27T09:03:17.457Z,3.40
2022-08-27T09:06:01.869Z,3.50
2022-08-27T09:08:41.333Z,3.30
2022-08-27T09:11:13.300Z,4.00
2022-08-27T09:13:48.306Z,3.20
2022-08-27T09:16:16.730Z,3.40
2022-08-27T09:18:45.871Z,4.50
2022-08-27T09:21:33.144Z,4.10
2022-08-27T09:24:04.567Z,4.00
2022-08-27T09:26:38.413Z,4.50
2022-08-27T09:29:17.238Z,4.20
2022-08-27T09:32:05.310Z,4.30
2022-08-27T09:34:37.401Z,3.80
2022-08-27T09:37:15.626Z,3.80
2022-08-27T09:39:53.938Z,3.90
2022-08-27T09:42:53.347Z,4.60
2022-08-27T09:45:36.115Z,4.10
2022-08-27T09:48:07.763Z,4.20
2022-08-27T09:50:47.820Z,4.90
2022-08-27T09:53:25.550Z,4.00
2022-08-27T09:56:03.165Z,4.00
2022-08-27T09:58:35.620Z,4.00
2022-08-27T10:01:05.680Z,3.60
2022-08-27T10:03:34.309Z,3.70
2022-08-27T10:06:02.572Z,3.50
2022-08-27T10:08:38.531Z,3.60
2022-08-27T10:11:29.800Z,4.20
2022-08-27T10:14:24.858Z,3.80
2022-08-27T10:17:05.378Z,3.50
2022-08-27T10:20:09.202Z,3.70
2022-08-27T10:22:58.124Z,3.30
2022-08-27T10:25:26.555Z,3.40
2022-08-27T10:28:09.740Z,3.50
2022-08-27T10:30:59.803Z,3.30
2022-08-27T10:33:44.749Z,3.30
2022-08-27T10:36:32.210Z,3.60
2022-08-27T10:39:24.269Z,4.00
2022-08-27T10:41:59.620Z,3.20
2022-08-27T10:44:45.545Z,3.10
2022-08-27T10:47:22.799Z,3.20
2022-08-27T10:50:04.439Z,3.80
2022-08-27T10:52:51.664Z,4.00
2022-08-27T10:55:24.332Z,5.40
2022-08-27T10:58:21.178Z,3.40
2022-08-27T11:00:56.686Z,3.30
2022-08-27T11:03:37.770Z,2.80
2022-08-27T11:06:45.958Z,3.10
2022-08-27T11:09:22.057Z,3.10
2022-08-27T11:12:14.238Z,3.50
2022-08-27T11:14:52.625Z,4.70
2022-08-27T11:17:46.315Z,3.50
2022-08-27T11:20:22.419Z,4.00
2022-08-27T11:23:04.710Z,4.60
2022-08-27T11:25:39.510Z,2.80
2022-08-27T11:28:11.755Z,3.50
2022-08-27T11:30:45.848Z,3.60
2022-08-27T11:33:21.072Z,3.00
2022-08-27T11:36:20.481Z,2.90
2022-08-27T11:39:40.965Z,3.00
2022-08-27T11:42:19.323Z,3.40
2022-08-27T11:44:50.160Z,3.20
2022-08-27T11:47:26.526Z,3.40
2022-08-27T11:50:04.572Z,3.30
2022-08-27T11:52:38.387Z,3.10
2022-08-27T11:58:04.687Z,2.40
2022-08-27T12:00:39.566Z,2.60
2022-08-27T12:03:10.429Z,3.40
2022-08-27T12:05:49.147Z,2.50
2022-08-27T12:08:23.067Z,2.40
2022-08-27T12:11:04.408Z,3.10
2022-08-27T12:14:00.959Z,2.50
2022-08-27T12:16:48.138Z,3.50
2022-08-27T12:19:49.791Z,3.20
2022-08-27T12:22:30.300Z,2.70
2022-08-27T12:24:59.897Z,3.80
2022-08-27T12:27:34.888Z,3.40
2022-08-27T12:30:30.276Z,2.90
2022-08-27T12:33:04.880Z,2.80
2022-08-27T12:35:50.767Z,2.80
2022-08-27T12:38:35.314Z,3.30
2022-08-27T12:41:09.164Z,3.00
2022-08-27T12:46:20.141Z,3.30
2022-08-27T12:49:09.945Z,3.40
2022-08-27T12:51:49.330Z,2.00
2022-08-27T12:54:58.185Z,2.00
2022-08-27T12:57:58.212Z,2.40
2022-08-27T13:00:36.069Z,2.00
2022-08-27T13:03:14.280Z,3.00
2022-08-27T13:05:50.953Z,2.30
2022-08-27T13:08:22.128Z,2.70
2022-08-27T13:10:54.515Z,2.50
2022-08-27T13:13:25.794Z,2.50
2022-08-27T13:15:57.156Z,2.30
2022-08-27T13:18:30.052Z,2.20
2022-08-27T13:23:33.793Z,2.60
2022-08-27T13:26:09.099Z,2.40
2022-08-27T13:28:40.812Z,2.00
2022-08-27T13:31:11.349Z,2.10
2022-08-27T13:33:41.312Z,2.30
2022-08-27T13:36:10.485Z,2.00
2022-08-27T13:38:47.891Z,2.40
2022-08-27T13:41:27.723Z,2.30
2022-08-27T13:43:59.558Z,2.30
2022-08-27T13:46:32.516Z,2.70
2022-08-27T13:49:01.407Z,2.20
2022-08-27T13:51:33.236Z,2.10
2022-08-27T13:54:13.686Z,2.20
2022-08-27T13:56:51.428Z,2.20
2022-08-27T13:59:22.218Z,1.60
2022-08-27T14:02:02.661Z,2.50
2022-08-27T14:04:39.552Z,1.90
2022-08-27T14:07:17.711Z,1.70
2022-08-27T14:10:08.475Z,1.80
2022-08-27T14:12:40.368Z,1.80
2022-08-27T14:15:30.439Z,1.60
2022-08-27T14:17:58.935Z,1.70
2022-08-27T14:20:27.869Z,2.00
2022-08-27T14:22:56.308Z,1.80
2022-08-27T14:25:24.621Z,2.90
2022-08-27T14:27:55.218Z,2.20
2022-08-27T14:30:29.013Z,2.20
2022-08-27T14:33:00.739Z,2.10
2022-08-27T14:35:32.499Z,2.40
2022-08-27T14:38:17.740Z,2.20
2022-08-27T14:40:47.741Z,2.30
2022-08-27T14:43:16.394Z,2.40
2022-08-27T14:45:46.378Z,2.50
2022-08-27T14:48:28.875Z,2.10
2022-08-27T14:50:59.275Z,2.60
2022-08-27T14:53:28.075Z,2.80
2022-08-27T14:55:59.086Z,2.30
2022-08-27T14:58:27.394Z,1.90
2022-08-27T15:00:58.276Z,2.00
2022-08-27T15:03:28.871Z,1.70
2022-08-27T15:05:57.038Z,2.20
2022-08-27T15:08:29.371Z,1.80
2022-08-27T15:11:00.525Z,1.70
2022-08-27T15:13:30.200Z,2.10
2022-08-27T15:15:58.399Z,1.80
2022-08-27T15:18:26.531Z,1.90
2022-08-27T15:20:54.612Z,2.00
2022-08-27T15:23:22.875Z,2.20
2022-08-27T15:25:50.931Z,1.70
2022-08-27T15:28:19.339Z,2.20
2022-08-27T15:30:47.774Z,2.90
2022-08-27T15:33:16.040Z,2.50
2022-08-27T15:35:44.495Z,2.10
2022-08-27T15:38:13.008Z,2.80
2022-08-27T15:40:42.530Z,2.30
2022-08-27T15:43:13.088Z,2.40
2022-08-27T15:45:41.306Z,2.30
2022-08-27T15:48:10.825Z,2.30
2022-08-27T15:50:39.320Z,2.30
2022-08-27T15:53:09.244Z,2.90
2022-08-27T15:55:44.596Z,2.30
2022-08-27T15:58:13.322Z,2.10
2022-08-27T16:00:43.119Z,3.00
2022-08-27T16:03:14.064Z,2.30
2022-08-27T16:05:44.926Z,3.00
2022-08-27T16:08:14.599Z,2.60
2022-08-27T16:10:42.637Z,2.20
2022-08-27T16:13:11.361Z,2.70
2022-08-27T16:15:41.190Z,2.70
2022-08-27T16:18:10.096Z,2.50
2022-08-27T16:20:38.857Z,2.70
2022-08-27T16:23:10.084Z,2.30
2022-08-27T16:25:40.427Z,2.70
2022-08-27T16:28:08.750Z,3.40
2022-08-27T16:30:37.102Z,2.70
2022-08-27T16:33:06.921Z,3.00
2022-08-27T16:35:35.070Z,3.80
2022-08-27T16:38:04.433Z,3.60
2022-08-27T16:40:36.449Z,3.10
2022-08-27T16:43:05.736Z,3.60
2022-08-27T16:45:34.078Z,3.00
2022-08-27T16:48:20.916Z,3.50
2022-08-27T16:50:49.047Z,3.10
2022-08-27T16:53:22.015Z,3.40
2022-08-27T16:55:52.086Z,2.90
2022-08-27T16:58:28.114Z,2.70
2022-08-27T17:00:59.479Z,2.60
2022-08-27T17:03:30.620Z,2.80
2022-08-27T17:05:59.078Z,3.50
2022-08-27T17:08:28.946Z,3.70
2022-08-27T17:10:57.523Z,5.90
2022-08-27T17:13:29.205Z,4.90
2022-08-27T17:15:57.726Z,5.50
2022-08-27T17:18:28.434Z,5.80
2022-08-27T17:20:59.241Z,4.70
2022-08-27T17:23:43.238Z,4.70
2022-08-27T17:26:13.940Z,4.10
2022-08-27T17:28:43.768Z,4.40
2022-08-27T17:31:27.822Z,4.00
2022-08-27T17:36:32.101Z,4.70
2022-08-27T17:39:03.111Z,4.80
2022-08-27T17:41:36.887Z,4.90
2022-08-27T17:44:24.098Z,5.20
2022-08-27T17:46:53.127Z,4.80
2022-08-27T17:49:21.728Z,5.70
2022-08-27T17:51:55.414Z,5.90
2022-08-27T17:54:30.283Z,5.30
2022-08-27T17:56:59.406Z,4.70
2022-08-27T17:59:27.658Z,4.80
2022-08-27T18:01:57.235Z,4.30
2022-08-27T18:04:27.620Z,4.50
2022-08-27T18:06:57.059Z,4.90
2022-08-27T18:09:25.970Z,4.80
2022-08-27T18:11:56.551Z,4.30
2022-08-27T18:14:24.935Z,4.30
2022-08-27T18:16:54.051Z,5.00
2022-08-27T18:19:22.414Z,5.20
2022-08-27T18:21:52.202Z,5.20
2022-08-27T18:24:21.919Z,5.20
2022-08-27T18:26:50.266Z,5.40
2022-08-27T18:29:19.051Z,5.00
2022-08-27T18:31:47.993Z,5.60
2022-08-27T18:34:20.526Z,5.20
2022-08-27T18:36:49.467Z,5.20
2022-08-27T18:39:17.642Z,5.30
2022-08-27T18:41:46.610Z,5.30
2022-08-27T18:44:17.378Z,4.90
2022-08-27T18:46:46.280Z,5.30
2022-08-27T18:49:14.985Z,5.00
2022-08-27T18:51:50.576Z,5.50
2022-08-27T18:54:22.363Z,5.20
2022-08-27T18:56:51.337Z,5.80
2022-08-27T18:59:19.885Z,5.40
2022-08-27T19:01:48.253Z,5.70
2022-08-27T19:04:18.716Z,4.80
2022-08-27T19:06:47.236Z,5.00
2022-08-27T19:09:19.485Z,5.00
2022-08-27T19:11:47.922Z,5.60
2022-08-27T19:14:15.981Z,5.30
2022-08-27T19:16:53.922Z,5.60
2022-08-27T19:19:25.129Z,5.20
2022-08-27T19:21:53.233Z,5.40
2022-08-27T19:24:22.796Z,5.40
2022-08-27T19:26:53.684Z,5.20
2022-08-27T19:29:22.171Z,4.70
2022-08-27T19:31:50.591Z,4.70
2022-08-27T19:34:18.930Z,5.50
2022-08-27T19:36:47.646Z,5.60
2022-08-27T19:39:17.600Z,5.60
2022-08-27T19:41:45.778Z,5.30
2022-08-27T19:44:13.856Z,5.40
2022-08-27T19:46:42.521Z,5.30
2022-08-27T19:49:10.598Z,5.70
2022-08-27T19:51:38.951Z,5.30
2022-08-27T19:54:08.096Z,5.40
2022-08-27T19:56:37.467Z,5.00
2022-08-27T19:59:20.418Z,5.80
2022-08-27T20:01:49.506Z,5.60
2022-08-27T20:04:17.927Z,5.50
2022-08-27T20:06:46.198Z,5.40
2022-08-27T20:09:17.141Z,6.20
2022-08-27T20:11:46.144Z,5.40
2022-08-27T20:14:14.320Z,5.50
2022-08-27T20:16:42.978Z,5.70
2022-08-27T20:19:11.840Z,4.90
2022-08-27T20:21:41.299Z,5.60
2022-08-27T20:24:09.579Z,5.50
2022-08-27T20:26:38.026Z,4.90
2022-08-27T20:29:08.892Z,5.30
2022-08-27T20:31:37.169Z,5.10
2022-08-27T20:34:07.481Z,5.10
2022-08-27T20:36:36.274Z,5.40
2022-08-27T20:39:04.762Z,5.50
2022-08-27T20:41:33.758Z,5.60
2022-08-27T20:44:03.537Z,5.00
2022-08-27T20:46:31.693Z,5.20
2022-08-27T20:48:59.767Z,5.40
2022-08-27T20:51:28.202Z,5.20
2022-08-27T20:53:58.983Z,5.30
2022-08-27T20:56:27.140Z,5.40
2022-08-27T20:59:13.869Z,4.90
2022-08-27T21:01:41.941Z,5.20
2022-08-27T21:04:11.116Z,4.90
2022-08-27T21:06:39.191Z,4.40
2022-08-27T21:09:07.302Z,5.30
2022-08-27T21:11:35.296Z,5.50
2022-08-27T21:14:03.413Z,4.90
2022-08-27T21:16:31.810Z,4.60
2022-08-27T21:19:00.144Z,5.20
2022-08-27T21:21:28.397Z,5.20
2022-08-27T21:23:56.487Z,4.80
2022-08-27T21:26:24.763Z,5.30
2022-08-27T21:28:55.947Z,5.20
2022-08-27T21:31:25.151Z,5.00
2022-08-27T21:33:55.061Z,4.50
2022-08-27T21:36:23.161Z,5.00
2022-08-27T21:38:51.341Z,4.90
2022-08-27T21:41:20.439Z,5.70
2022-08-27T21:43:49.881Z,5.20
2022-08-27T21:46:20.072Z,4.90
2022-08-27T21:48:58.470Z,5.50
2022-08-27T21:51:27.718Z,5.00
2022-08-27T21:53:57.837Z,4.30
2022-08-27T21:56:27.371Z,4.60
2022-08-27T21:58:55.390Z,4.30
2022-08-27T22:01:23.482Z,5.10
2022-08-27T22:03:51.758Z,4.30
2022-08-27T22:06:20.274Z,4.70
2022-08-27T22:08:49.093Z,4.60
2022-08-27T22:11:21.947Z,4.60
2022-08-27T22:13:54.112Z,4.10
2022-08-27T22:16:22.300Z,4.60
2022-08-27T22:18:54.950Z,4.30
2022-08-27T22:21:26.503Z,4.70
2022-08-27T22:23:54.601Z,4.70
2022-08-27T22:26:25.184Z,4.20
2022-08-27T22:28:53.264Z,4.40
2022-08-27T22:31:21.648Z,5.00
2022-08-27T22:33:49.796Z,4.40
2022-08-27T22:36:18.141Z,4.20
2022-08-27T22:38:47.627Z,4.90
2022-08-27T22:41:18.337Z,4.50
2022-08-27T22:43:47.197Z,4.40
2022-08-27T22:46:15.925Z,4.30
2022-08-27T22:48:43.961Z,4.90
2022-08-27T22:51:12.513Z,4.40
2022-08-27T22:53:40.690Z,4.90
2022-08-27T22:56:09.902Z,4.70
2022-08-27T22:58:38.069Z,4.70
2022-08-27T23:01:07.603Z,4.10
2022-08-27T23:03:36.073Z,4.40
2022-08-27T23:06:04.259Z,4.70
2022-08-27T23:08:32.403Z,4.20
2022-08-27T23:11:03.520Z,4.40
2022-08-27T23:13:33.259Z,4.30
2022-08-27T23:16:03.271Z,4.30
2022-08-27T23:18:32.489Z,4.10
2022-08-27T23:21:00.587Z,4.10
2022-08-27T23:23:30.700Z,4.00
2022-08-27T23:26:18.035Z,4.10
2022-08-27T23:28:46.296Z,4.10
2022-08-27T23:31:14.812Z,4.20
2022-08-27T23:33:43.222Z,4.40
2022-08-27T23:36:12.718Z,4.70
2022-08-27T23:38:40.798Z,4.70
2022-08-27T23:41:08.855Z,4.40
2022-08-27T23:43:37.046Z,4.30
2022-08-27T23:46:05.238Z,4.00
2022-08-27T23:48:33.599Z,3.80
2022-08-27T23:51:01.719Z,4.20
2022-08-27T23:53:29.745Z,4.20
2022-08-27T23:55:57.845Z,4.20
2022-08-27T23:58:25.933Z,4.10
